createdAt,value
2022-12-05T00:01:26.352Z,10.43
2022-12-05T00:03:56.781Z,10.60
2022-12-05T00:06:25.081Z,11.20
2022-12-05T00:08:52.725Z,12.40
2022-12-05T00:11:22.261Z,11.70
2022-12-05T00:13:50.225Z,14.00
2022-12-05T00:16:19.495Z,13.20
2022-12-05T00:18:47.205Z,13.07
2022-12-05T00:21:17.275Z,14.00
2022-12-05T00:23:44.099Z,13.40
2022-12-05T00:26:11.704Z,13.17
2022-12-05T00:28:39.337Z,13.33
2022-12-05T00:31:16.554Z,13.87
2022-12-05T00:33:44.584Z,13.43
2022-12-05T00:36:15.226Z,12.50
2022-12-05T00:38:42.819Z,12.97
2022-12-05T00:41:14.401Z,13.57
2022-12-05T00:43:41.872Z,13.37
2022-12-05T00:46:11.901Z,13.53
2022-12-05T00:48:38.905Z,14.13
2022-12-05T00:51:20.089Z,13.27
2022-12-05T00:53:47.825Z,13.00
2022-12-05T00:56:21.098Z,13.93
2022-12-05T00:58:48.450Z,13.50
2022-12-05T01:01:20.070Z,13.40
2022-12-05T01:03:48.255Z,13.53
2022-12-05T01:06:16.410Z,13.10
2022-12-05T01:08:43.518Z,12.63
2022-12-05T01:11:14.023Z,12.83
2022-12-05T01:13:40.989Z,11.83
2022-12-05T01:16:17.202Z,12.40
2022-12-05T01:18:44.307Z,12.87
2022-12-05T01:21:11.360Z,12.97
2022-12-05T01:23:38.295Z,12.83
2022-12-05T01:26:08.342Z,12.97
2022-12-05T01:28:36.060Z,12.03
2022-12-05T01:31:08.380Z,13.80
2022-12-05T01:33:35.743Z,13.37
2022-12-05T01:36:03.794Z,13.23
2022-12-05T01:38:30.653Z,13.67
2022-12-05T01:41:03.196Z,13.43
2022-12-05T01:43:30.061Z,14.10
2022-12-05T01:45:57.285Z,15.13
2022-12-05T01:48:36.004Z,15.87
2022-12-05T01:51:03.109Z,14.60
2022-12-05T01:53:30.570Z,14.63
2022-12-05T01:55:57.595Z,14.90
2022-12-05T01:58:31.374Z,15.00
2022-12-05T02:00:58.323Z,14.90
2022-12-05T02:03:25.166Z,15.13
2022-12-05T02:05:54.952Z,14.47
2022-12-05T02:08:21.820Z,14.83
2022-12-05T02:10:54.487Z,16.40
2022-12-05T02:13:58.331Z,16.30
2022-12-05T02:16:27.900Z,14.77
2022-12-05T02:19:13.416Z,14.73
2022-12-05T02:22:17.294Z,14.43
2022-12-05T02:25:25.297Z,14.50
2022-12-05T02:28:16.326Z,13.83
2022-12-05T02:31:01.154Z,14.13
2022-12-05T02:33:39.352Z,14.90
2022-12-05T02:36:17.196Z,13.70
2022-12-05T02:39:06.778Z,13.60
2022-12-05T02:41:49.809Z,13.23
2022-12-05T02:44:24.696Z,13.43
2022-12-05T02:46:53.499Z,12.80
2022-12-05T02:49:24.601Z,13.13
2022-12-05T02:51:58.690Z,13.43
2022-12-05T02:54:30.181Z,13.97
2022-12-05T02:56:59.183Z,13.87
2022-12-05T02:59:26.065Z,13.70
2022-12-05T03:01:53.299Z,12.47
2022-12-05T03:04:24.418Z,12.93
2022-12-05T03:07:04.944Z,12.47
2022-12-05T03:09:39.689Z,11.73
2022-12-05T03:12:28.489Z,12.00
2022-12-05T03:15:05.585Z,12.63
2022-12-05T03:17:39.421Z,12.03
2022-12-05T03:20:14.209Z,11.67
2022-12-05T03:22:52.662Z,11.93
2022-12-05T03:25:23.646Z,11.93
2022-12-05T03:28:06.073Z,11.37
2022-12-05T03:30:38.259Z,12.13
2022-12-05T03:33:14.186Z,11.10
2022-12-05T03:36:08.311Z,10.73
2022-12-05T03:38:58.045Z,10.00
2022-12-05T03:41:40.913Z,9.63
2022-12-05T03:44:25.755Z,10.47
2022-12-05T03:47:10.740Z,9.67
2022-12-05T03:49:43.457Z,9.27
2022-12-05T03:52:51.022Z,9.17
2022-12-05T03:55:25.198Z,9.43
2022-12-05T03:58:19.169Z,9.13
2022-12-05T04:00:49.324Z,8.90
2022-12-05T04:04:05.020Z,9.23
2022-12-05T04:06:37.483Z,8.53
2022-12-05T04:09:20.537Z,8.90
2022-12-05T04:11:53.303Z,9.00
2022-12-05T04:14:39.337Z,8.73
2022-12-05T04:17:39.805Z,8.90
2022-12-05T04:20:29.173Z,8.60
2022-12-05T04:22:56.341Z,8.60
2022-12-05T04:25:33.090Z,8.97
2022-12-05T04:28:03.045Z,8.17
2022-12-05T04:30:45.065Z,8.83
2022-12-05T04:33:29.817Z,8.70
2022-12-05T04:36:03.332Z,8.60
2022-12-05T04:38:59.601Z,8.80
2022-12-05T04:41:37.029Z,8.50
2022-12-05T04:44:08.503Z,8.33
2022-12-05T04:46:38.527Z,8.47
2022-12-05T04:49:09.118Z,8.20
2022-12-05T04:51:38.473Z,8.77
2022-12-05T04:54:14.663Z,8.10
2022-12-05T04:56:44.003Z,8.33
2022-12-05T04:59:11.323Z,8.73
2022-12-05T05:01:51.428Z,8.20
2022-12-05T05:04:25.078Z,8.03
2022-12-05T05:06:51.897Z,7.90
2022-12-05T05:09:18.711Z,7.63
2022-12-05T05:11:45.638Z,7.93
2022-12-05T05:14:12.419Z,7.67
2022-12-05T05:16:41.412Z,7.17
2022-12-05T05:19:09.067Z,7.37
2022-12-05T05:21:38.943Z,7.13
2022-12-05T05:24:06.875Z,7.20
2022-12-05T05:26:36.725Z,7.63
2022-12-05T05:29:04.509Z,7.40
2022-12-05T05:31:31.627Z,6.83
2022-12-05T05:33:58.876Z,6.90
2022-12-05T05:36:27.546Z,6.67
2022-12-05T05:39:00.932Z,7.30
2022-12-05T05:41:32.488Z,7.47
2022-12-05T05:44:00.141Z,7.07
2022-12-05T05:46:29.738Z,7.27
2022-12-05T05:48:57.094Z,6.90
2022-12-05T05:51:25.805Z,7.27
2022-12-05T05:53:52.604Z,7.30
2022-12-05T05:56:21.943Z,7.57
2022-12-05T05:58:55.003Z,7.00
2022-12-05T06:01:22.091Z,6.57
2022-12-05T06:03:50.906Z,7.63
2022-12-05T06:06:18.320Z,6.77
2022-12-05T06:08:45.966Z,6.70
2022-12-05T06:11:24.867Z,6.97
2022-12-05T06:13:54.550Z,7.27
2022-12-05T06:16:21.647Z,7.23
2022-12-05T06:18:49.948Z,7.43
2022-12-05T06:21:17.255Z,7.37
2022-12-05T06:23:44.336Z,7.30
2022-12-05T06:26:14.036Z,7.17
2022-12-05T06:28:41.466Z,7.70
2022-12-05T06:31:14.423Z,7.50
2022-12-05T06:33:41.476Z,7.93
2022-12-05T06:36:11.472Z,8.30
2022-12-05T06:38:42.081Z,7.60
2022-12-05T06:41:14.164Z,8.03
2022-12-05T06:43:41.353Z,7.27
2022-12-05T06:46:09.524Z,8.47
2022-12-05T06:48:36.436Z,7.63
2022-12-05T06:51:03.935Z,7.90
2022-12-05T06:53:30.729Z,7.83
2022-12-05T06:55:59.489Z,7.80
2022-12-05T06:58:26.719Z,7.57
2022-12-05T07:01:12.402Z,7.73
2022-12-05T07:03:39.374Z,8.27
2022-12-05T07:06:07.554Z,7.83
2022-12-05T07:08:34.970Z,7.97
2022-12-05T07:11:02.757Z,8.23
2022-12-05T07:13:29.973Z,7.70
2022-12-05T07:15:58.528Z,8.23
2022-12-05T07:18:26.247Z,8.00
2022-12-05T07:21:11.651Z,8.37
2022-12-05T07:23:40.402Z,7.63
2022-12-05T07:26:09.586Z,8.20
2022-12-05T07:28:36.796Z,8.37
2022-12-05T07:31:09.712Z,8.50
2022-12-05T07:33:37.446Z,8.57
2022-12-05T07:36:11.012Z,9.00
2022-12-05T07:38:38.106Z,7.83
2022-12-05T07:41:13.519Z,8.23
2022-12-05T07:43:42.156Z,8.47
2022-12-05T07:46:11.470Z,8.83
2022-12-05T07:48:39.344Z,8.43
2022-12-05T07:51:07.594Z,8.40
2022-12-05T07:53:34.635Z,9.07
2022-12-05T07:56:03.760Z,9.23
2022-12-05T07:58:31.609Z,9.13
2022-12-05T08:01:11.144Z,9.33
2022-12-05T08:03:38.419Z,9.40
2022-12-05T08:06:07.440Z,9.77
2022-12-05T08:08:34.637Z,9.37
2022-12-05T08:11:06.583Z,9.27
2022-12-05T08:13:34.126Z,8.63
2022-12-05T08:16:06.139Z,9.17
2022-12-05T08:18:33.072Z,9.80
2022-12-05T08:21:08.120Z,8.87
2022-12-05T08:23:36.125Z,8.17
2022-12-05T08:26:11.650Z,9.10
2022-12-05T08:28:38.934Z,8.30
2022-12-05T08:31:10.080Z,8.37
2022-12-05T08:33:37.464Z,8.23
2022-12-05T08:36:07.652Z,8.70
2022-12-05T08:38:35.274Z,8.30
2022-12-05T08:41:03.153Z,8.13
2022-12-05T08:43:31.213Z,7.90
2022-12-05T08:45:58.241Z,7.33
2022-12-05T08:48:29.433Z,8.07
2022-12-05T08:50:57.332Z,7.90
2022-12-05T08:53:24.342Z,8.07
2022-12-05T08:55:51.187Z,8.00
2022-12-05T08:58:18.092Z,7.40
2022-12-05T09:00:44.839Z,8.30
2022-12-05T09:03:12.736Z,8.70
2022-12-05T09:05:39.800Z,8.93
2022-12-05T09:08:06.810Z,7.70
2022-12-05T09:10:34.016Z,8.27
2022-12-05T09:13:00.828Z,7.53
2022-12-05T09:15:27.838Z,9.10
2022-12-05T09:17:54.698Z,8.43
2022-12-05T09:20:22.354Z,8.23
2022-12-05T09:22:49.169Z,8.20
2022-12-05T09:25:16.039Z,9.47
2022-12-05T09:27:42.942Z,8.77
2022-12-05T09:30:10.321Z,8.17
2022-12-05T09:32:37.548Z,8.20
2022-12-05T09:35:04.599Z,8.43
2022-12-05T09:37:39.265Z,7.60
2022-12-05T09:40:07.927Z,8.17
2022-12-05T09:43:06.014Z,8.67
2022-12-05T09:45:40.037Z,8.03
2022-12-05T09:48:15.586Z,7.80
2022-12-05T09:50:46.087Z,8.30
2022-12-05T09:53:18.765Z,7.90
2022-12-05T09:56:04.938Z,8.37
2022-12-05T09:58:34.888Z,8.47
2022-12-05T10:01:21.388Z,8.03
2022-12-05T10:04:19.393Z,8.20
2022-12-05T10:07:01.240Z,7.97
2022-12-05T10:09:39.860Z,7.93
2022-12-05T10:12:43.396Z,8.43
2022-12-05T10:15:19.698Z,7.77
2022-12-05T10:18:26.883Z,8.37
2022-12-05T10:21:24.041Z,7.50
2022-12-05T10:24:05.896Z,8.27
2022-12-05T10:26:49.533Z,8.07
2022-12-05T10:29:28.598Z,8.07
2022-12-05T10:32:11.148Z,7.30
2022-12-05T10:34:43.398Z,8.07
2022-12-05T10:37:21.936Z,7.43
2022-12-05T10:39:50.345Z,8.60
2022-12-05T10:42:25.401Z,7.40
2022-12-05T10:45:02.955Z,7.50
2022-12-05T10:47:31.173Z,7.00
2022-12-05T10:50:03.859Z,7.87
2022-12-05T10:52:31.125Z,7.10
2022-12-05T10:55:02.903Z,7.37
2022-12-05T10:57:30.409Z,7.00
2022-12-05T10:59:58.006Z,6.70
2022-12-05T11:02:31.352Z,7.17
2022-12-05T11:04:59.620Z,6.60
2022-12-05T11:07:31.004Z,6.60
2022-12-05T11:10:00.381Z,7.07
2022-12-05T11:12:36.241Z,6.90
2022-12-05T11:15:05.600Z,6.40
2022-12-05T11:17:38.947Z,7.37
2022-12-05T11:20:20.741Z,6.97
2022-12-05T11:22:50.341Z,7.23
2022-12-05T11:25:30.565Z,6.70
2022-12-05T11:28:01.627Z,6.47
2022-12-05T11:30:29.630Z,6.67
2022-12-05T11:33:20.106Z,7.27
2022-12-05T11:35:53.108Z,6.70
2022-12-05T11:38:22.574Z,7.10
2022-12-05T11:41:02.504Z,6.37
2022-12-05T11:43:57.153Z,6.50
2022-12-05T11:46:51.894Z,9.20
2022-12-05T11:49:47.909Z,9.20
2022-12-05T11:52:57.895Z,10.03
2022-12-05T11:55:30.495Z,8.73
2022-12-05T11:58:38.090Z,8.40
2022-12-05T12:01:36.123Z,8.53
2022-12-05T12:04:37.397Z,8.13
2022-12-05T12:07:07.004Z,8.47
2022-12-05T12:10:00.243Z,8.47
2022-12-05T12:12:48.523Z,8.20
2022-12-05T12:15:49.465Z,8.37
2022-12-05T12:18:26.157Z,8.50
2022-12-05T12:21:27.119Z,7.70
2022-12-05T12:24:03.033Z,7.40
2022-12-05T12:26:48.356Z,8.37
2022-12-05T12:29:18.092Z,7.53
2022-12-05T12:32:06.185Z,7.80
2022-12-05T12:35:00.525Z,7.30
2022-12-05T12:37:41.270Z,7.73
2022-12-05T12:40:16.932Z,7.83
2022-12-05T12:43:07.464Z,7.37
2022-12-05T12:45:58.659Z,8.40
2022-12-05T12:48:50.571Z,8.83
2022-12-05T12:51:17.993Z,10.00
2022-12-05T12:53:57.266Z,9.23
2022-12-05T12:56:27.120Z,7.90
2022-12-05T12:59:17.230Z,7.60
2022-12-05T13:02:00.282Z,8.00
2022-12-05T13:04:42.003Z,8.27
2022-12-05T13:07:26.475Z,8.63
2022-12-05T13:10:00.313Z,7.80
2022-12-05T13:12:38.065Z,8.30
2022-12-05T13:15:13.907Z,10.17
2022-12-05T13:17:43.284Z,9.33
2022-12-05T13:20:25.310Z,9.27
2022-12-05T13:22:53.045Z,10.07
2022-12-05T13:25:24.501Z,11.03
2022-12-05T13:27:57.698Z,10.30
2022-12-05T13:30:28.426Z,9.17
2022-12-05T13:33:03.851Z,10.47
2022-12-05T13:35:55.033Z,10.03
2022-12-05T13:38:46.311Z,10.10
2022-12-05T13:41:32.120Z,9.77
2022-12-05T13:44:06.349Z,8.90
2022-12-05T13:46:37.027Z,9.87
2022-12-05T13:49:17.383Z,10.27
2022-12-05T13:51:45.811Z,12.43
2022-12-05T13:54:21.685Z,11.70
2022-12-05T13:56:52.324Z,11.10
2022-12-05T13:59:56.868Z,10.03
2022-12-05T14:02:51.850Z,9.60
2022-12-05T14:05:21.651Z,10.57
2022-12-05T14:08:03.401Z,9.60
2022-12-05T14:10:36.978Z,9.57
2022-12-05T14:13:23.769Z,10.93
2022-12-05T14:15:52.325Z,8.77
2022-12-05T14:18:38.885Z,9.80
2022-12-05T14:21:33.327Z,8.70
2022-12-05T14:24:15.136Z,9.13
2022-12-05T14:27:07.523Z,9.10
2022-12-05T14:30:01.103Z,9.20
2022-12-05T14:32:32.413Z,8.73
2022-12-05T14:35:20.871Z,10.17
2022-12-05T14:38:01.394Z,10.00
2022-12-05T14:40:42.216Z,8.97
2022-12-05T14:43:22.223Z,8.53
2022-12-05T14:45:52.067Z,9.10
2022-12-05T14:48:47.824Z,7.80
2022-12-05T14:51:33.121Z,8.63
2022-12-05T14:54:16.973Z,8.47
2022-12-05T14:56:49.612Z,7.80
2022-12-05T14:59:31.427Z,8.17
2022-12-05T15:02:01.145Z,8.00
2022-12-05T15:04:51.027Z,7.83
2022-12-05T15:07:21.462Z,8.43
2022-12-05T15:10:02.432Z,7.50
2022-12-05T15:12:33.829Z,7.47
2022-12-05T15:15:31.736Z,7.07
2022-12-05T15:18:05.602Z,7.07
2022-12-05T15:20:58.335Z,6.73
2022-12-05T15:23:49.344Z,7.07
2022-12-05T15:26:46.128Z,7.20
2022-12-05T15:29:23.259Z,6.93
2022-12-05T15:31:54.592Z,7.43
2022-12-05T15:34:38.256Z,7.40
2022-12-05T15:37:14.123Z,6.90
2022-12-05T15:40:00.766Z,6.93
2022-12-05T15:42:36.251Z,7.23
2022-12-05T15:45:15.225Z,7.03
2022-12-05T15:47:54.388Z,7.17
2022-12-05T15:50:33.235Z,6.70
2022-12-05T15:53:15.621Z,6.67
2022-12-05T15:55:51.209Z,7.33
2022-12-05T15:58:26.184Z,8.27
2022-12-05T16:01:06.566Z,7.30
2022-12-05T16:03:58.204Z,7.17
2022-12-05T16:06:24.968Z,8.27
2022-12-05T16:08:52.207Z,7.67
2022-12-05T16:11:19.270Z,8.67
2022-12-05T16:13:54.103Z,6.73
2022-12-05T16:16:25.035Z,7.60
2022-12-05T16:19:04.532Z,8.30
2022-12-05T16:21:46.461Z,7.27
2022-12-05T16:24:29.809Z,7.70
2022-12-05T16:26:59.670Z,7.33
2022-12-05T16:29:29.008Z,7.47
2022-12-05T16:32:02.285Z,7.37
2022-12-05T16:34:32.415Z,8.10
2022-12-05T16:36:59.560Z,7.50
2022-12-05T16:39:31.115Z,8.37
2022-12-05T16:41:57.991Z,9.30
2022-12-05T16:44:28.397Z,8.80
2022-12-05T16:46:56.638Z,9.57
2022-12-05T16:49:34.897Z,9.10
2022-12-05T16:52:07.514Z,9.40
2022-12-05T16:54:34.673Z,8.50
2022-12-05T16:57:02.727Z,9.07
2022-12-05T16:59:41.421Z,9.77
2022-12-05T17:02:14.784Z,8.87
2022-12-05T17:04:41.858Z,9.90
2022-12-05T17:07:09.192Z,9.03
2022-12-05T17:09:36.125Z,9.50
2022-12-05T17:12:11.605Z,9.03
2022-12-05T17:14:38.454Z,9.20
2022-12-05T17:17:13.567Z,9.47
2022-12-05T17:19:40.375Z,9.73
2022-12-05T17:22:07.291Z,9.17
2022-12-05T17:24:34.119Z,9.07
2022-12-05T17:27:01.138Z,10.03
2022-12-05T17:29:32.425Z,9.80
2022-12-05T17:32:02.297Z,10.30
2022-12-05T17:34:29.863Z,10.90
2022-12-05T17:36:56.623Z,10.40
2022-12-05T17:39:28.279Z,10.47
2022-12-05T17:41:55.615Z,10.60
2022-12-05T17:44:22.554Z,10.30
2022-12-05T17:46:49.471Z,10.53
2022-12-05T17:49:18.299Z,10.80
2022-12-05T17:52:13.344Z,10.70
2022-12-05T17:54:32.624Z,10.80
2022-12-05T17:56:59.479Z,10.53
2022-12-05T17:59:26.276Z,10.07
2022-12-05T18:01:53.072Z,9.67
2022-12-05T18:04:23.095Z,10.10
2022-12-05T18:06:50.707Z,10.13
2022-12-05T18:09:17.742Z,11.47
2022-12-05T18:11:44.635Z,10.67
2022-12-05T18:14:11.549Z,10.00
2022-12-05T18:16:38.453Z,10.80
2022-12-05T18:19:05.389Z,10.73
2022-12-05T18:21:32.212Z,10.50
2022-12-05T18:23:59.961Z,10.67
2022-12-05T18:26:26.881Z,9.80
2022-12-05T18:28:56.445Z,10.20
2022-12-05T18:31:23.913Z,11.00
2022-12-05T18:33:51.119Z,10.37
2022-12-05T18:36:20.220Z,10.63
2022-12-05T18:38:51.791Z,11.33
2022-12-05T18:41:18.838Z,11.10
2022-12-05T18:43:45.741Z,12.27
2022-12-05T18:46:12.628Z,12.03
2022-12-05T18:48:44.878Z,10.57
2022-12-05T18:51:21.267Z,11.07
2022-12-05T18:53:53.504Z,11.40
2022-12-05T18:56:24.916Z,11.40
2022-12-05T18:58:54.321Z,11.43
2022-12-05T19:01:21.237Z,11.47
2022-12-05T19:03:49.504Z,10.97
2022-12-05T19:06:19.670Z,11.53
2022-12-05T19:08:47.211Z,11.60
2022-12-05T19:11:16.008Z,11.23
2022-12-05T19:13:43.143Z,16.70
2022-12-05T19:16:16.986Z,13.57
2022-12-05T19:18:44.730Z,15.43
2022-12-05T19:21:11.864Z,15.40
2022-12-05T19:23:39.288Z,14.97
2022-12-05T19:26:08.188Z,13.63
2022-12-05T19:28:36.487Z,15.03
2022-12-05T19:31:16.024Z,15.30
2022-12-05T19:33:45.788Z,14.80
2022-12-05T19:36:31.581Z,13.80
2022-12-05T19:38:58.531Z,17.03
2022-12-05T19:41:28.717Z,15.47
2022-12-05T19:43:59.243Z,15.60
2022-12-05T19:46:29.754Z,15.27
2022-12-05T19:48:58.252Z,13.80
2022-12-05T19:51:25.355Z,15.90
2022-12-05T19:53:52.457Z,15.50
2022-12-05T19:56:22.005Z,14.93
2022-12-05T19:58:50.393Z,15.90
2022-12-05T20:01:19.700Z,17.03
2022-12-05T20:03:55.767Z,16.47
2022-12-05T20:06:23.340Z,15.33
2022-12-05T20:08:52.517Z,15.10
2022-12-05T20:11:28.126Z,14.47
2022-12-05T20:13:58.790Z,14.30
2022-12-05T20:16:27.246Z,14.37
2022-12-05T20:18:58.905Z,14.40
2022-12-05T20:21:28.255Z,13.00
2022-12-05T20:23:56.669Z,13.60
2022-12-05T20:26:49.879Z,13.70
2022-12-05T20:29:16.798Z,13.37
2022-12-05T20:31:43.838Z,13.37
2022-12-05T20:34:13.567Z,12.80
2022-12-05T20:36:40.703Z,14.40
2022-12-05T20:39:16.077Z,13.67
2022-12-05T20:41:43.601Z,13.10
2022-12-05T20:44:14.508Z,13.97
2022-12-05T20:46:41.657Z,13.87
2022-12-05T20:49:08.857Z,13.20
2022-12-05T20:51:35.769Z,15.00
2022-12-05T20:54:05.294Z,16.10
2022-12-05T20:56:33.408Z,15.00
2022-12-05T20:59:02.697Z,14.40
2022-12-05T21:01:32.154Z,15.10
2022-12-05T21:03:59.336Z,13.63
2022-12-05T21:06:29.085Z,13.40
2022-12-05T21:08:56.750Z,14.83
2022-12-05T21:11:24.397Z,14.30
2022-12-05T21:13:52.131Z,14.20
2022-12-05T21:16:21.125Z,15.03
2022-12-05T21:18:48.962Z,15.27
2022-12-05T21:21:21.199Z,15.73
2022-12-05T21:23:56.728Z,15.27
2022-12-05T21:26:24.737Z,15.87
2022-12-05T21:28:51.663Z,15.80
2022-12-05T21:31:25.931Z,17.53
2022-12-05T21:33:55.400Z,17.43
2022-12-05T21:36:23.331Z,17.53
2022-12-05T21:38:55.607Z,16.60
2022-12-05T21:41:23.036Z,16.13
2022-12-05T21:43:54.363Z,15.70
2022-12-05T21:46:22.541Z,15.20
2022-12-05T21:48:49.435Z,15.97
2022-12-05T21:51:16.545Z,16.10
2022-12-05T21:53:43.617Z,15.20
2022-12-05T21:56:15.555Z,14.73
2022-12-05T21:58:44.329Z,14.90
2022-12-05T22:01:17.321Z,15.47
2022-12-05T22:03:44.516Z,15.80
2022-12-05T22:06:12.703Z,16.67
2022-12-05T22:08:39.783Z,16.93
2022-12-05T22:11:13.893Z,16.77
2022-12-05T22:13:41.473Z,18.07
2022-12-05T22:16:08.916Z,17.47
2022-12-05T22:18:36.284Z,18.17
2022-12-05T22:21:15.106Z,19.00
2022-12-05T22:23:42.209Z,17.90
2022-12-05T22:26:17.927Z,17.20
2022-12-05T22:28:45.026Z,18.07
2022-12-05T22:31:16.589Z,17.60
2022-12-05T22:33:45.119Z,16.83
2022-12-05T22:36:14.708Z,16.87
2022-12-05T22:38:44.300Z,16.10
2022-12-05T22:41:16.346Z,16.53
2022-12-05T22:43:44.853Z,15.63
2022-12-05T22:46:14.474Z,15.33
2022-12-05T22:48:41.946Z,17.23
2022-12-05T22:51:09.068Z,17.33
2022-12-05T22:53:37.118Z,17.80
2022-12-05T22:56:11.826Z,20.00
2022-12-05T22:58:39.773Z,21.60
2022-12-05T23:01:20.161Z,20.80
2022-12-05T23:03:49.385Z,19.27
2022-12-05T23:06:17.965Z,20.00
2022-12-05T23:08:47.812Z,19.23
2022-12-05T23:11:16.320Z,18.13
2022-12-05T23:13:43.497Z,18.27
2022-12-05T23:16:16.726Z,17.43
2022-12-05T23:18:46.911Z,16.87
2022-12-05T23:21:25.913Z,16.23
2022-12-05T23:23:54.826Z,15.20
2022-12-05T23:26:25.090Z,15.77
2022-12-05T23:28:52.441Z,15.87
2022-12-05T23:31:20.068Z,15.27
2022-12-05T23:33:51.090Z,14.77
2022-12-05T23:36:19.101Z,14.87
2022-12-05T23:38:45.981Z,15.30
2022-12-05T23:41:15.685Z,15.30
2022-12-05T23:43:43.437Z,14.63
2022-12-05T23:46:11.615Z,15.10
2022-12-05T23:48:38.795Z,14.23
2022-12-05T23:51:09.708Z,14.37
2022-12-05T23:53:38.258Z,13.97
2022-12-05T23:56:08.289Z,13.47
2022-12-05T23:58:35.767Z,14.47
